Time;durP1;ratioP1;P1;durP2;ratioP2;P2;SDS_P1;SDS_P2;PMS_P1;PMS_P2;Temp;Humidity;BMP_temperature;BMP_pressure;BME280_temperature;BME280_humidity;BME280_pressure;Samples;Min_cycle;Max_cycle;Signal;HPM_P1;HPM_P2
2022/10/06 00:01:27;;;;;;;13.57;10.23;;;256.40;2252.80;;;;;;5076206;28;20052;-77
2022/10/06 00:03:53;;;;;;;14.07;9.02;;;256.50;2252.80;;;;;;5074348;28;20035;-77
2022/10/06 00:06:19;;;;;;;15.07;8.68;;;256.50;2252.80;;;;;;5074538;28;20029;-78
2022/10/06 00:08:46;;;;;;;13.75;9.63;;;256.50;2252.80;;;;;;5074276;28;20071;-77
2022/10/06 00:11:13;;;;;;;17.08;9.55;;;256.50;2252.80;;;;;;5074171;28;20021;-77
2022/10/06 00:13:39;;;;;;;17.08;10.57;;;256.50;2252.80;;;;;;5075821;28;20111;-77
2022/10/06 00:16:16;;;;;;;20.10;12.93;;;256.10;2252.80;;;;;;5074074;28;20054;-77
2022/10/06 00:18:42;;;;;;;27.35;16.65;;;256.50;2252.80;;;;;;5075156;28;20381;-77
2022/10/06 00:21:09;;;;;;;47.72;26.60;;;256.30;2252.80;;;;;;5075319;28;20460;-77
2022/10/06 00:23:35;;;;;;;21.70;13.82;;;256.10;2252.80;;;;;;5074099;28;20021;-77
2022/10/06 00:26:01;;;;;;;19.15;10.85;;;231.30;2252.80;;;;;;5074316;28;20054;-77
2022/10/06 00:28:27;;;;;;;18.05;9.57;;;256.00;2252.80;;;;;;5074262;28;20115;-78
2022/10/06 00:30:55;;;;;;;12.75;8.25;;;256.50;2252.80;;;;;;5073872;28;20028;-77
2022/10/06 00:33:21;;;;;;;13.10;9.30;;;256.40;2252.80;;;;;;5075357;28;20108;-77
2022/10/06 00:35:47;;;;;;;14.10;9.38;;;256.40;2252.80;;;;;;5074131;28;20047;-77
2022/10/06 00:38:15;;;;;;;18.50;10.40;;;256.40;2252.80;;;;;;5073583;28;20063;-77
2022/10/06 00:40:47;;;;;;;21.05;11.15;;;256.40;2252.80;;;;;;5075456;28;20038;-77
2022/10/06 00:43:39;;;;;;;16.02;9.55;;;256.40;2252.80;;;;;;5073908;28;20024;-77
2022/10/06 00:46:08;;;;;;;14.32;9.15;;;256.30;2252.80;;;;;;5073599;28;20032;-77
2022/10/06 00:48:35;;;;;;;18.05;9.68;;;231.30;2252.80;;;;;;5073796;28;20036;-77
2022/10/06 00:51:01;;;;;;;19.65;11.27;;;256.00;2252.80;;;;;;5073455;28;20111;-77
2022/10/06 00:53:29;;;;;;;19.17;10.88;;;256.10;2252.80;;;;;;5073390;28;20086;-77
2022/10/06 00:55:56;;;;;;;20.38;10.10;;;256.20;2252.80;;;;;;5073433;28;20032;-77
2022/10/06 00:58:21;;;;;;;12.57;8.77;;;256.20;2252.80;;;;;;5074477;28;20070;-77
2022/10/06 01:00:52;;;;;;;12.30;7.55;;;256.40;2252.80;;;;;;5073610;28;20116;-77
2022/10/06 01:03:26;;;;;;;12.77;7.00;;;256.50;2252.80;;;;;;5073619;28;20419;-78
2022/10/06 01:05:54;;;;;;;11.40;7.35;;;256.60;2252.80;;;;;;5073150;28;20020;-77
2022/10/06 01:08:21;;;;;;;9.52;6.85;;;256.50;2252.80;;;;;;5073406;28;20025;-77
2022/10/06 01:10:47;;;;;;;11.48;7.15;;;256.50;2252.80;;;;;;5084922;28;20468;-77
2022/10/06 01:13:14;;;;;;;9.80;6.18;;;256.50;2252.80;;;;;;5094258;28;20024;-77
2022/10/06 01:15:49;;;;;;;11.48;6.80;;;256.30;2252.80;;;;;;5093469;28;20442;-77
2022/10/06 01:18:18;;;;;;;14.32;6.47;;;256.30;2252.80;;;;;;5094580;28;20134;-77
2022/10/06 01:21:01;;;;;;;12.07;5.97;;;256.30;2252.80;;;;;;5094042;28;20429;-77
2022/10/06 01:23:29;;;;;;;8.70;6.47;;;256.30;2252.80;;;;;;5094281;28;20078;-78
2022/10/06 01:25:56;;;;;;;9.65;6.55;;;256.40;2252.80;;;;;;5094111;28;20028;-77
2022/10/06 01:28:22;;;;;;;10.85;6.70;;;256.30;2252.80;;;;;;5110519;28;20081;-78
2022/10/06 01:30:51;;;;;;;11.27;7.63;;;256.10;2252.80;;;;;;5110210;28;20016;-77
2022/10/06 01:33:21;;;;;;;10.20;6.72;;;256.20;2252.80;;;;;;5109833;28;20065;-77
2022/10/06 01:35:51;;;;;;;12.02;6.82;;;256.20;2252.80;;;;;;5094729;28;20573;-77
2022/10/06 01:38:18;;;;;;;11.00;6.63;;;256.90;2252.80;;;;;;5094659;28;20047;-77
2022/10/06 01:40:44;;;;;;;11.93;6.97;;;256.30;2252.80;;;;;;5108434;28;20115;-77
2022/10/06 01:43:11;;;;;;;12.32;6.90;;;256.30;2252.80;;;;;;5110004;28;20066;-77
2022/10/06 01:45:36;;;;;;;11.00;6.68;;;256.70;2252.80;;;;;;5093298;28;20028;-77
2022/10/06 01:48:02;;;;;;;11.13;6.45;;;256.40;2252.80;;;;;;5109409;28;20538;-77
2022/10/06 01:50:28;;;;;;;11.55;6.90;;;256.40;2252.80;;;;;;5109978;28;20028;-77
2022/10/06 01:52:56;;;;;;;11.30;6.60;;;256.40;2252.80;;;;;;5109532;28;20035;-78
2022/10/06 01:55:22;;;;;;;10.73;5.82;;;256.50;2252.80;;;;;;5109538;28;20422;-77
2022/10/06 01:57:48;;;;;;;11.27;6.90;;;256.40;2252.80;;;;;;5093986;28;20028;-78
2022/10/06 02:00:14;;;;;;;11.25;6.47;;;256.40;2252.80;;;;;;5109846;28;20383;-77
2022/10/06 02:02:41;;;;;;;14.80;7.35;;;256.30;2252.80;;;;;;5109626;28;20035;-77
2022/10/06 02:05:07;;;;;;;15.02;7.93;;;231.30;2252.80;;;;;;5109794;28;20024;-77
2022/10/06 02:07:36;;;;;;;13.13;8.00;;;231.20;2252.80;;;;;;5109654;28;20486;-76
2022/10/06 02:10:04;;;;;;;12.05;8.32;;;231.30;2252.80;;;;;;5093513;28;20024;-77
2022/10/06 02:12:30;;;;;;;14.85;7.78;;;231.20;2252.80;;;;;;5109524;28;20120;-77
2022/10/06 02:14:56;;;;;;;15.57;8.18;;;231.00;2252.80;;;;;;5109383;28;20455;-77
2022/10/06 02:17:22;;;;;;;13.13;8.20;;;231.00;2252.80;;;;;;5109182;28;20052;-77
2022/10/06 02:19:48;;;;;;;14.13;8.50;;;231.20;2252.80;;;;;;5093842;28;20024;-77
2022/10/06 02:22:14;;;;;;;15.45;8.90;;;231.30;2252.80;;;;;;5093200;28;20021;-77
2022/10/06 02:24:40;;;;;;;15.77;9.48;;;231.10;2252.80;;;;;;5109468;28;20515;-77
2022/10/06 02:27:06;;;;;;;15.48;9.50;;;231.20;2252.80;;;;;;5109487;28;20108;-78
2022/10/06 02:29:33;;;;;;;14.32;8.55;;;231.30;2252.80;;;;;;5093472;28;20059;-77
2022/10/06 02:31:59;;;;;;;12.73;8.45;;;231.30;2252.80;;;;;;5109363;28;20032;-77
2022/10/06 02:34:25;;;;;;;14.52;8.45;;;231.10;2252.80;;;;;;5110933;28;20027;-78
2022/10/06 02:36:51;;;;;;;14.18;7.72;;;231.00;2252.80;;;;;;5112998;28;20032;-77
2022/10/06 02:39:16;;;;;;;10.88;7.30;;;230.70;2252.80;;;;;;5113492;28;20040;-77
2022/10/06 02:41:42;;;;;;;12.18;8.23;;;230.60;2252.80;;;;;;5098060;28;20034;-77
2022/10/06 02:44:08;;;;;;;10.55;7.40;;;230.60;2252.80;;;;;;5097164;28;20020;-77
2022/10/06 02:46:34;;;;;;;11.90;7.82;;;230.50;2252.80;;;;;;5113497;28;20024;-77
2022/10/06 02:48:59;;;;;;;14.75;7.53;;;230.40;2252.80;;;;;;5113398;28;20399;-77
2022/10/06 02:51:25;;;;;;;14.60;8.93;;;230.40;2252.80;;;;;;5113042;28;20050;-77
2022/10/06 02:53:51;;;;;;;15.40;7.45;;;205.70;2252.80;;;;;;5113221;28;20107;-77
2022/10/06 02:56:23;;;;;;;9.80;6.57;;;230.60;2252.80;;;;;;5097484;28;20048;-77
2022/10/06 02:58:50;;;;;;;12.65;7.18;;;230.70;2252.80;;;;;;5112763;28;20024;-77
2022/10/06 03:01:18;;;;;;;12.75;7.57;;;230.70;2252.80;;;;;;5094527;28;20123;-77
2022/10/06 03:03:47;;;;;;;11.75;6.88;;;230.90;2252.80;;;;;;5092029;28;20480;-77
2022/10/06 03:06:25;;;;;;;18.92;8.70;;;230.90;2252.80;;;;;;5075117;28;20028;-77
2022/10/06 03:08:57;;;;;;;10.43;7.28;;;230.90;2252.80;;;;;;5076965;28;20444;-77
2022/10/06 03:11:28;;;;;;;11.82;7.20;;;230.90;2252.80;;;;;;5076467;28;20044;-77
2022/10/06 03:13:54;;;;;;;11.50;6.72;;;230.80;2252.80;;;;;;5076534;28;20457;-77
2022/10/06 03:16:23;;;;;;;12.98;7.85;;;230.80;2252.80;;;;;;5092535;28;20025;-77
2022/10/06 03:18:51;;;;;;;11.60;7.13;;;205.70;2252.80;;;;;;5091879;28;20098;-77
2022/10/06 03:21:18;;;;;;;10.80;7.07;;;205.60;2252.80;;;;;;5092347;28;20268;-77
2022/10/06 03:23:46;;;;;;;15.25;8.65;;;;;;;;;;5076684;28;20107;-77
2022/10/06 03:26:14;;;;;;;12.40;7.10;;;;;;;;;;5092014;28;20380;-77
2022/10/06 03:28:40;;;;;;;14.07;7.72;;;;;;;;;;5076817;28;20020;-77
2022/10/06 03:31:06;;;;;;;9.38;7.28;;;;;;;;;;5076599;28;20107;-77
2022/10/06 03:33:33;;;;;;;12.52;7.50;;;;;;;;;;5076206;28;20139;-77
2022/10/06 03:36:03;;;;;;;13.52;6.68;;;;;;;;;;5076510;28;20601;-79
2022/10/06 03:38:31;;;;;;;13.80;7.53;;;;;;;;;;5092208;28;20357;-76
2022/10/06 03:41:04;;;;;;;14.40;7.65;;;;;;;;;;5091660;28;20024;-77
2022/10/06 03:43:30;;;;;;;13.27;7.88;;;;;;;;;;5091921;28;20021;-77
2022/10/06 03:45:57;;;;;;;12.00;7.68;;;;;;;;;;5075342;28;20082;-77
2022/10/06 03:48:23;;;;;;;11.18;7.85;;;;;;;;;;5076320;28;20028;-78
2022/10/06 03:50:56;;;;;;;12.05;7.50;;;;;;;;;;5091830;28;20023;-76
2022/10/06 03:53:24;;;;;;;13.18;7.95;;;;;;;;;;5091375;28;20025;-76
2022/10/06 03:56:00;;;;;;;22.65;12.63;;;;;;;;;;5091697;28;20058;-76
2022/10/06 03:58:30;;;;;;;21.95;12.13;;;;;;;;;;5076019;28;20032;-77
2022/10/06 04:01:06;;;;;;;19.13;10.50;;;;;;;;;;5074405;28;20024;-77
2022/10/06 04:03:33;;;;;;;15.20;8.95;;;;;;;;;;5075677;28;20092;-77
2022/10/06 04:06:00;;;;;;;15.45;7.80;;;;;;;;;;5091562;28;20372;-77
2022/10/06 04:08:26;;;;;;;8.75;6.32;;;;;;;;;;5091250;28;20448;-77
2022/10/06 04:10:53;;;;;;;14.10;7.03;;;;;;;;;;5091411;28;20078;-79
2022/10/06 04:13:20;;;;;;;11.40;6.70;;;;;;;;;;5091535;28;20086;-77
2022/10/06 04:15:46;;;;;;;13.18;7.00;;;;;;;;;;5091004;28;20020;-77
2022/10/06 04:18:13;;;;;;;13.45;8.05;;;;;;;;;;5091020;28;20513;-77
2022/10/06 04:20:39;;;;;;;18.50;11.40;;;;;;;;;;5091161;28;20055;-78
2022/10/06 04:23:06;;;;;;;20.50;12.32;;;;;;;;;;5075394;28;20028;-77
2022/10/06 04:25:32;;;;;;;21.15;13.57;;;;;;;;;;5074271;28;20397;-77
2022/10/06 04:27:58;;;;;;;20.40;11.82;;;;;;;;;;5073667;28;20021;-77
2022/10/06 04:30:25;;;;;;;18.85;10.85;;;;;;;;;;5074167;28;20097;-78
2022/10/06 04:32:52;;;;;;;17.83;10.27;;;;;;;;;;5074153;28;20059;-78
2022/10/06 04:35:19;;;;;;;13.60;8.95;;;;;;;;;;5073831;28;20491;-77
2022/10/06 04:37:48;;;;;;;16.27;8.85;;;;;;;;;;5090909;28;20695;-77
2022/10/06 04:40:15;;;;;;;20.83;10.10;;;;;;;;;;5090843;28;20025;-78
2022/10/06 04:42:42;;;;;;;27.00;11.10;;;;;;;;;;5073692;28;20031;-78
2022/10/06 04:45:09;;;;;;;26.33;9.63;;;;;;;;;;5075186;28;20021;-78
2022/10/06 04:47:35;;;;;;;17.70;9.13;;;;;;;;;;5090692;28;20020;-78
2022/10/06 04:50:01;;;;;;;17.80;10.50;;;205.40;2252.80;;;;;;5074816;28;20052;-77
2022/10/06 04:52:27;;;;;;;16.05;11.32;;;;;;;;;;5073722;28;20068;-77
2022/10/06 04:54:53;;;;;;;20.90;11.70;;;205.50;2252.80;;;;;;5073702;28;20024;-78
2022/10/06 04:57:18;;;;;;;18.33;10.82;;;205.00;2252.80;;;;;;5073545;28;20066;-78
2022/10/06 05:02:29;;;;;;;19.55;10.18;;;;;;;;;;5074625;28;20086;-78
2022/10/06 05:04:56;;;;;;;21.60;10.77;;;;;;;;;;5073259;28;20438;-78
2022/10/06 05:07:22;;;;;;;18.17;9.13;;;;;;;;;;5073498;28;20415;-78
2022/10/06 05:09:48;;;;;;;17.52;10.13;;;;;;;;;;5089953;28;20062;-77
2022/10/06 05:12:14;;;;;;;19.83;10.57;;;;;;;;;;5074666;28;20067;-78
2022/10/06 05:14:40;;;;;;;23.45;11.10;;;;;;;;;;5073342;28;20060;-78
2022/10/06 05:17:06;;;;;;;22.52;10.60;;;;;;;;;;5072799;28;20041;-78
2022/10/06 05:19:32;;;;;;;20.05;12.13;;;;;;;;;;5073275;28;20464;-78
2022/10/06 05:21:58;;;;;;;19.08;11.68;;;;;;;;;;5073167;28;20024;-78
2022/10/06 05:24:24;;;;;;;19.55;11.48;;;;;;;;;;5072595;28;20016;-78
2022/10/06 05:26:52;;;;;;;22.58;12.25;;;;;;;;;;5073058;28;20365;-78
2022/10/06 05:29:18;;;;;;;25.70;14.75;;;;;;;;;;5073985;28;20042;-78
2022/10/06 05:31:45;;;;;;;24.40;14.25;;;;;;;;;;5072637;28;20036;-79
2022/10/06 05:34:11;;;;;;;22.13;14.25;;;;;;;;;;5072612;28;20020;-79
2022/10/06 05:36:37;;;;;;;20.33;12.82;;;;;;;;;;5073857;28;20399;-78
2022/10/06 05:39:04;;;;;;;21.27;11.35;;;;;;;;;;5072552;28;20029;-78
2022/10/06 05:41:31;;;;;;;25.70;13.10;;;;;;;;;;5090071;28;20103;-78
2022/10/06 05:43:58;;;;;;;26.38;16.33;;;;;;;;;;5092550;28;20024;-78
2022/10/06 05:46:28;;;;;;;26.33;16.38;;;;;;;;;;5092206;28;20027;-78
2022/10/06 05:48:55;;;;;;;30.02;16.88;;;;;;;;;;5092952;28;20467;-78
2022/10/06 05:51:22;;;;;;;23.58;16.77;;;;;;;;;;5094233;28;20028;-78
2022/10/06 05:53:48;;;;;;;28.38;16.85;;;;;;;;;;5092375;28;20027;-78
2022/10/06 05:56:20;;;;;;;33.75;20.27;;;;;;;;;;5092782;28;20020;-78
2022/10/06 05:58:47;;;;;;;32.83;20.43;;;;;;;;;;5092485;28;20483;-78
2022/10/06 06:01:14;;;;;;;33.40;22.05;;;;;;;;;;5092455;28;20028;-78
2022/10/06 06:03:41;;;;;;;31.63;20.42;;;;;;;;;;5092814;28;20357;-78
2022/10/06 06:06:26;;;;;;;34.22;19.70;;;;;;;;;;5092360;28;20020;-78
2022/10/06 06:09:02;;;;;;;26.73;17.95;;;;;;;;;;5092229;28;20024;-78
2022/10/06 06:11:30;;;;;;;26.58;16.77;;;;;;;;;;5092731;28;20107;-78
2022/10/06 06:14:00;;;;;;;21.75;15.82;;;;;;;;;;5092485;28;20024;-78
2022/10/06 06:16:27;;;;;;;25.50;17.83;;;;;;;;;;5092603;28;20024;-78
2022/10/06 06:18:53;;;;;;;28.10;18.60;;;;;;;;;;5091989;28;20106;-78
2022/10/06 06:21:21;;;;;;;24.10;15.45;;;;;;;;;;5093500;28;20457;-78
2022/10/06 06:23:48;;;;;;;22.30;14.13;;;;;;;;;;5092454;28;20032;-78
2022/10/06 06:26:18;;;;;;;25.83;14.43;;;;;;;;;;5113004;28;20019;-78
2022/10/06 06:28:46;;;;;;;31.15;15.32;;;;;;;;;;5118654;28;20009;-79
2022/10/06 06:31:13;;;;;;;31.98;17.13;;;;;;;;;;5101777;28;20020;-78
2022/10/06 06:33:40;;;;;;;28.30;16.15;;;;;;;;;;5094299;28;20024;-78
2022/10/06 06:36:13;;;;;;;26.05;16.23;;;;;;;;;;5093992;28;20016;-78
2022/10/06 06:38:40;;;;;;;23.25;14.45;;;;;;;;;;5092429;28;20467;-78
2022/10/06 06:41:12;;;;;;;19.40;12.65;;;;;;;;;;5093104;28;20490;-80
2022/10/06 06:43:38;;;;;;;21.38;12.98;;;;;;;;;;5092430;28;20028;-81
2022/10/06 06:46:05;;;;;;;21.55;15.75;;;;;;;;;;5092346;28;20028;-81
2022/10/06 06:48:31;;;;;;;22.13;14.15;;;;;;;;;;5091977;28;20021;-81
2022/10/06 06:50:57;;;;;;;22.10;14.43;;;;;;;;;;5092346;28;20020;-80
2022/10/06 06:53:23;;;;;;;25.40;14.98;;;;;;;;;;5092307;28;20487;-81
2022/10/06 06:55:50;;;;;;;20.60;14.15;;;;;;;;;;5093231;28;20024;-81
2022/10/06 06:58:18;;;;;;;23.75;14.90;;;;;;;;;;5092138;28;20077;-80
2022/10/06 07:00:44;;;;;;;19.33;15.15;;;;;;;;;;5092385;28;20361;-81
2022/10/06 07:03:14;;;;;;;26.10;12.02;;;;;;;;;;5091975;28;20032;-78
2022/10/06 07:05:40;;;;;;;13.45;10.73;;;;;;;;;;5093477;28;20020;-79
2022/10/06 07:08:10;;;;;;;14.25;10.35;;;;;;;;;;5092185;28;20028;-77
2022/10/06 07:10:37;;;;;;;15.73;9.63;;;;;;;;;;5091926;28;20502;-78
2022/10/06 07:13:05;;;;;;;19.63;11.20;;;;;;;;;;5091785;28;20063;-78
2022/10/06 07:26:32;;;;;;;20.23;9.40;;;;;;;;;;5097193;28;20081;-80
2022/10/06 07:29:01;;;;;;;20.42;9.35;;;;;;;;;;5095627;28;20032;-82
2022/10/06 07:31:32;;;;;;;17.67;10.48;;;;;;;;;;5095672;28;20379;-80
2022/10/06 07:34:02;;;;;;;17.20;9.23;;;;;;;;;;5097126;28;20493;-81
2022/10/06 07:36:29;;;;;;;17.50;8.15;;;;;;;;;;5096874;28;20019;-81
2022/10/06 07:38:55;;;;;;;17.27;8.63;;;;;;;;;;5095154;28;20168;-83
2022/10/06 07:41:21;;;;;;;23.02;9.10;;;;;;;;;;5095576;28;20028;-83
2022/10/06 07:43:48;;;;;;;15.93;8.95;;;;;;;;;;5095354;28;20482;-81
2022/10/06 07:46:14;;;;;;;13.15;8.77;;;;;;;;;;5096767;28;20024;-80
2022/10/06 07:48:40;;;;;;;13.63;8.50;;;;;;;;;;5095365;28;20028;-76
2022/10/06 07:51:17;;;;;;;14.07;8.10;;;;;;;;;;5094977;28;20028;-76
2022/10/06 07:53:49;;;;;;;11.32;7.78;;;;;;;;;;5095355;28;20070;-75
2022/10/06 07:56:19;;;;;;;13.13;8.20;;;;;;;;;;5095453;28;20441;-76
2022/10/06 07:58:45;;;;;;;12.73;7.32;;;;;;;;;;5094746;28;20032;-76
2022/10/06 08:01:12;;;;;;;13.60;6.78;;;;;;;;;;5095914;28;20027;-76
2022/10/06 08:03:39;;;;;;;13.88;6.88;;;;;;;;;;5094959;28;20537;-77
2022/10/06 08:06:05;;;;;;;14.30;7.93;;;308.10;2304.00;;;;;;5095779;28;20375;-75
2022/10/06 08:08:35;;;;;;;10.88;6.32;;;333.70;2329.60;;;;;;5094783;28;20036;-76
2022/10/06 08:11:03;;;;;;;17.63;7.65;;;332.80;2329.60;;;;;;5096158;28;20024;-80
2022/10/06 08:13:31;;;;;;;13.05;7.93;;;308.10;2304.00;;;;;;5094675;28;20021;-79
2022/10/06 08:16:07;;;;;;;14.70;9.10;;;308.10;2304.00;;;;;;5095715;28;20103;-79
2022/10/06 08:18:33;;;;;;;10.50;6.90;;;332.90;2329.60;;;;;;5094017;28;20055;-78
2022/10/06 08:20:59;;;;;;;11.52;6.13;;;333.00;2329.60;;;;;;5094459;28;20032;-78
2022/10/06 08:23:25;;;;;;;11.30;6.65;;;333.10;2329.60;;;;;;5094394;28;20070;-79
2022/10/06 08:25:53;;;;;;;12.80;6.93;;;333.20;2329.60;;;;;;5095133;28;20031;-79
2022/10/06 08:28:21;;;;;;;11.30;6.75;;;333.30;2329.60;;;;;;5094390;28;20024;-80
2022/10/06 08:30:50;;;;;;;15.77;8.80;;;;;;;;;;5086520;28;20020;-78
2022/10/06 08:33:16;;;;;;;8.98;5.43;;;;;;;;;;5086226;28;20494;-77
2022/10/06 08:35:42;;;;;;;9.98;5.60;;;333.70;2329.60;;;;;;5085861;28;20032;-78
2022/10/06 08:38:08;;;;;;;11.50;5.97;;;358.50;2329.60;;;;;;5093911;28;20464;-78
2022/10/06 08:40:34;;;;;;;14.10;6.57;;;358.40;2329.60;;;;;;5076790;28;20056;-78
2022/10/06 08:43:01;;;;;;;9.25;6.10;;;;;;;;;;5087406;28;20086;-77
2022/10/06 08:45:38;;;;;;;8.55;5.72;;;;;;;;;;5083558;28;20379;-78
2022/10/06 08:48:09;;;;;;;9.13;5.07;;;;;;;;;;5093605;28;20020;-77
2022/10/06 08:50:38;;;;;;;13.57;6.55;;;;;;;;;;5078077;28;20441;-80
2022/10/06 08:53:18;;;;;;;12.95;7.10;;;;;;;;;;5086614;28;20079;-77
2022/10/06 08:56:16;;;;;;;13.55;6.05;;;359.20;2329.60;;;;;;5085477;28;20035;-78
2022/10/06 08:58:56;;;;;;;11.20;5.43;;;359.10;2329.60;;;;;;5077199;28;20075;-78
2022/10/06 09:01:28;;;;;;;14.38;6.28;;;359.10;2329.60;;;;;;5093279;28;20030;-78
2022/10/06 09:04:00;;;;;;;11.73;7.13;;;384.00;2329.60;;;;;;5079700;28;20506;-80
2022/10/06 09:06:45;;;;;;;9.90;6.88;;;;;;;;;;5089950;28;20025;-78
2022/10/06 09:09:32;;;;;;;9.27;6.38;;;384.30;2329.60;;;;;;5080518;28;20028;-77
2022/10/06 09:11:58;;;;;;;9.77;6.07;;;;;;;;;;5078975;28;20048;-76
2022/10/06 09:14:37;;;;;;;13.23;6.13;;;;;;;;;;5073509;28;20025;-77
2022/10/06 09:17:06;;;;;;;8.23;5.45;;;;;;;;;;5074277;28;20094;-78
2022/10/06 09:19:34;;;;;;;10.32;5.97;;;;;;;;;;5073183;28;20033;-78
2022/10/06 09:22:03;;;;;;;12.35;6.20;;;;;;;;;;5072898;28;20034;-78
2022/10/06 09:24:38;;;;;;;11.20;6.63;;;384.70;2329.60;;;;;;5074268;28;20020;-77
2022/10/06 09:27:19;;;;;;;13.90;7.25;;;384.50;2329.60;;;;;;5073171;28;20031;-78
2022/10/06 09:29:47;;;;;;;16.42;12.00;;;;;;;;;;5073843;28;20111;-77
2022/10/06 09:32:14;;;;;;;15.77;9.23;;;;;;;;;;5072963;28;20107;-78
2022/10/06 09:34:44;;;;;;;12.98;6.22;;;;;;;;;;5072891;28;20079;-77
2022/10/06 09:37:12;;;;;;;14.95;7.40;;;;;;;;;;5074219;28;20021;-77
2022/10/06 09:39:56;;;;;;;10.55;6.88;;;;;;;;;;5074517;28;20040;-78
2022/10/06 09:42:28;;;;;;;13.27;7.05;;;;;;;;;;5110072;28;20067;-78
2022/10/06 09:44:59;;;;;;;14.17;8.40;;;;;;;;;;5092083;28;20024;-78
2022/10/06 09:47:38;;;;;;;14.70;7.97;;;;;;;;;;5094014;28;20024;-80
2022/10/06 09:50:04;;;;;;;11.30;8.60;;;;;;;;;;5109233;28;20084;-78
2022/10/06 09:52:30;;;;;;;13.05;6.95;;;;;;;;;;5109793;28;20017;-77
2022/10/06 09:55:12;;;;;;;12.88;7.18;;;;;;;;;;5109925;28;20027;-78
2022/10/06 09:57:39;;;;;;;12.23;7.85;;;;;;;;;;5094014;28;20020;-78
2022/10/06 10:00:27;;;;;;;17.20;8.25;;;;;;;;;;5109651;28;20043;-77
2022/10/06 10:03:04;;;;;;;19.92;8.65;;;;;;;;;;5109808;28;20027;-78
2022/10/06 10:05:32;;;;;;;11.15;7.53;;;;;;;;;;5109496;28;20116;-78
2022/10/06 10:08:02;;;;;;;16.48;7.22;;;;;;;;;;5109596;28;20016;-78
2022/10/06 10:10:28;;;;;;;14.02;9.50;;;;;;;;;;5098597;28;20028;-78
2022/10/06 10:12:56;;;;;;;20.83;12.88;;;;;;;;;;5073411;28;20028;-79
2022/10/06 10:15:24;;;;;;;14.20;8.65;;;;;;;;;;5071670;28;20162;-79
2022/10/06 10:17:56;;;;;;;12.95;8.95;;;;;;;;;;5088549;28;20051;-77
2022/10/06 10:20:33;;;;;;;15.75;7.28;;;;;;;;;;5088837;28;20025;-77
2022/10/06 10:23:19;;;;;;;12.23;7.13;;;;;;;;;;5089134;28;20020;-77
2022/10/06 10:26:13;;;;;;;16.63;6.95;;;;;;;;;;5064536;28;20025;-78
2022/10/06 10:28:45;;;;;;;19.65;7.72;;;;;;;;;;5057201;28;20491;-79
2022/10/06 10:31:29;;;;;;;21.70;14.70;;;;;;;;;;5073256;28;20493;-78
2022/10/06 10:34:14;;;;;;;11.88;9.90;;;;;;;;;;5073046;28;20364;-78
2022/10/06 10:36:47;;;;;;;16.10;8.02;;;;;;;;;;5089107;28;20098;-78
2022/10/06 10:39:17;;;;;;;13.75;7.13;;;;;;;;;;5073153;28;20024;-78
2022/10/06 10:41:48;;;;;;;11.25;6.43;;;;;;;;;;5088776;28;20051;-79
2022/10/06 10:44:22;;;;;;;12.60;10.33;;;;;;;;;;5088936;28;20112;-77
2022/10/06 10:46:51;;;;;;;11.57;6.55;;;;;;;;;;5071889;28;20482;-78
2022/10/06 10:49:27;;;;;;;14.57;7.32;;;;;;;;;;5088974;28;20237;-79
2022/10/06 10:51:56;;;;;;;10.65;5.82;;;;;;;;;;5089001;28;20024;-78
2022/10/06 10:54:23;;;;;;;9.85;5.78;;;;;;;;;;5088625;28;20024;-79
2022/10/06 10:56:51;;;;;;;12.85;6.15;;;;;;;;;;5092614;28;20371;-79
2022/10/06 10:59:17;;;;;;;13.45;6.38;;;;;;;;;;5092843;28;20361;-80
2022/10/06 11:01:54;;;;;;;9.52;5.80;;;487.10;2380.80;;;;;;5092493;28;20111;-77
2022/10/06 11:04:20;;;;;;;10.95;6.28;;;487.10;2380.80;;;;;;5076855;28;20031;-78
2022/10/06 11:06:54;;;;;;;14.23;5.97;;;;;;;;;;5092435;28;20020;-81
2022/10/06 11:09:23;;;;;;;16.55;5.38;;;;;;;;;;5077169;28;20032;-79
2022/10/06 11:12:08;;;;;;;11.57;5.20;;;;;;;;;;5092604;28;20028;-78
2022/10/06 11:14:47;;;;;;;12.82;6.30;;;512.70;2380.80;;;;;;5092405;28;20460;-81
2022/10/06 11:17:28;;;;;;;12.15;5.45;;;512.60;2380.80;;;;;;5092405;28;20053;-80
2022/10/06 11:19:57;;;;;;;9.00;5.38;;;;;;;;;;5092398;28;20033;-80
2022/10/06 11:22:56;;;;;;;12.40;5.78;;;537.60;2380.80;;;;;;5092224;28;20025;-80
2022/10/06 11:25:31;;;;;;;11.98;6.00;;;512.90;2329.60;;;;;;5092369;28;20027;-79
2022/10/06 11:28:16;;;;;;;9.70;5.40;;;;;;;;;;5092206;28;20028;-79
2022/10/06 11:31:03;;;;;;;6.95;4.93;;;;;;;;;;5092405;28;20361;-77
2022/10/06 11:33:33;;;;;;;9.43;5.68;;;;;;;;;;5076376;28;20361;-78
2022/10/06 11:36:00;;;;;;;10.45;6.38;;;;;;;;;;5076823;28;20104;-79
2022/10/06 11:38:36;;;;;;;14.63;5.40;;;564.00;2304.00;;;;;;5076762;28;20107;-80
2022/10/06 11:41:18;;;;;;;17.92;7.68;;;563.70;2227.20;;;;;;5076901;28;20036;-80
2022/10/06 11:43:49;;;;;;;13.68;6.15;;;564.00;2278.40;;;;;;5091829;28;20029;-80
2022/10/06 11:46:42;;;;;;;12.43;6.03;;;563.90;2227.20;;;;;;5092002;28;20119;-78
2022/10/06 11:49:27;;;;;;;12.07;5.45;;;564.10;2252.80;;;;;;5076218;28;20059;-80
2022/10/06 11:52:16;;;;;;;14.48;5.43;;;564.10;2201.60;;;;;;5091866;28;20032;-78
2022/10/06 11:54:42;;;;;;;11.77;6.43;;;564.10;2227.20;;;;;;5091713;28;20380;-76
2022/10/06 11:57:23;;;;;;;11.68;5.90;;;588.90;2227.20;;;;;;5091343;28;20028;-77
2022/10/06 11:59:55;;;;;;;11.68;6.85;;;589.10;2201.60;;;;;;5091579;28;20522;-77
2022/10/06 12:02:43;;;;;;;10.27;6.50;;;589.10;2227.20;;;;;;5091701;28;20036;-75
2022/10/06 12:05:08;;;;;;;17.95;11.25;;;589.00;2150.40;;;;;;5091586;28;20380;-77
2022/10/06 12:07:53;;;;;;;14.00;9.98;;;589.00;2176.00;;;;;;5074043;28;20027;-76
2022/10/06 12:10:49;;;;;;;8.48;4.85;;;589.10;2176.00;;;;;;5091110;28;20031;-76
2022/10/06 12:13:39;;;;;;;10.98;5.65;;;589.50;2124.80;;;;;;5074870;28;20139;-75
2022/10/06 12:16:14;;;;;;;13.55;5.63;;;;;;;;;;5091417;28;20090;-74
2022/10/06 12:18:44;;;;;;;9.55;4.70;;;;;;;;;;5090702;28;20055;-76
2022/10/06 12:21:29;;;;;;;10.45;4.88;;;;;;;;;;5091335;28;20032;-75
2022/10/06 12:23:55;;;;;;;11.05;5.40;;;;;;;;;;5075289;28;20048;-78
2022/10/06 12:26:36;;;;;;;10.15;5.25;;;;;;;;;;5075872;28;20020;-77
2022/10/06 12:29:18;;;;;;;10.73;5.80;;;;;;;;;;5075553;28;20032;-77
2022/10/06 12:31:51;;;;;;;8.90;5.50;;;;;;;;;;5090908;28;20111;-75
2022/10/06 12:34:52;;;;;;;11.07;6.07;;;;;;;;;;5090942;28;20025;-75
2022/10/06 12:37:31;;;;;;;11.38;7.00;;;;;;;;;;5036260;28;20487;-76
2022/10/06 12:40:15;;;;;;;9.18;5.35;;;;;;;;;;5072384;28;20097;-77
2022/10/06 12:42:41;;;;;;;12.55;4.93;;;;;;;;;;5090844;28;20024;-77
2022/10/06 12:45:13;;;;;;;8.48;5.30;;;;;;;;;;5090618;28;20059;-78
2022/10/06 12:47:42;;;;;;;9.48;5.47;;;;;;;;;;5090900;28;20380;-78
2022/10/06 12:50:25;;;;;;;11.50;4.97;;;;;;;;;;5074776;28;20024;-78
2022/10/06 12:52:51;;;;;;;10.18;4.85;;;;;;;;;;5089727;28;20020;-78
2022/10/06 12:55:32;;;;;;;10.82;5.60;;;;;;;;;;5074981;28;20078;-76
2022/10/06 12:58:00;;;;;;;18.67;6.13;;;;;;;;;;5074513;28;20032;-76
2022/10/06 13:00:29;;;;;;;12.45;6.07;;;;;;;;;;5091535;28;20028;-78
2022/10/06 13:02:57;;;;;;;13.02;6.15;;;;;;;;;;5074574;28;20016;-76
2022/10/06 13:05:24;;;;;;;9.63;4.55;;;;;;;;;;5089728;28;20020;-76
2022/10/06 13:07:56;;;;;;;10.25;4.70;;;;;;;;;;5089964;28;20028;-76
2022/10/06 13:10:22;;;;;;;11.45;6.20;;;;;;;;;;5073106;28;20024;-76
2022/10/06 13:12:51;;;;;;;13.52;5.43;;;;;;;;;;5089850;28;20028;-77
2022/10/06 13:15:22;;;;;;;14.75;5.70;;;;;;;;;;5090255;28;20067;-77
2022/10/06 13:17:48;;;;;;;12.63;6.50;;;;;;;;;;5089067;28;20409;-79
2022/10/06 13:20:22;;;;;;;16.73;5.60;;;;;;;;;;5073684;28;20024;-77
2022/10/06 13:23:18;;;;;;;12.77;6.03;;;;;;;;;;5090328;28;20032;-75
2022/10/06 13:25:47;;;;;;;10.32;5.90;;;;;;;;;;5093613;28;20020;-74
2022/10/06 13:28:25;;;;;;;13.93;7.20;;;;;;;;;;5081778;28;20029;-76
2022/10/06 13:30:52;;;;;;;12.60;6.55;;;;;;;;;;5090108;28;20094;-77
2022/10/06 13:33:18;;;;;;;14.60;5.97;;;;;;;;;;5090032;28;20067;-77
2022/10/06 13:35:45;;;;;;;10.20;6.53;;;;;;;;;;5073971;28;20028;-77
2022/10/06 13:38:11;;;;;;;9.45;5.53;;;;;;;;;;5089775;28;20111;-77
2022/10/06 13:40:37;;;;;;;12.18;6.40;;;;;;;;;;5089450;28;20470;-77
2022/10/06 13:43:03;;;;;;;7.90;5.65;;;;;;;;;;5089641;28;20063;-76
2022/10/06 13:45:30;;;;;;;9.20;4.75;;;;;;;;;;5073973;28;20044;-80
2022/10/06 13:48:05;;;;;;;9.90;5.65;;;;;;;;;;5089357;28;20512;-78
2022/10/06 13:50:31;;;;;;;6.40;4.30;;;;;;;;;;5089543;28;20021;-80
2022/10/06 13:52:57;;;;;;;6.68;4.60;;;;;;;;;;5089506;28;20027;-79
2022/10/06 13:55:25;;;;;;;7.65;4.63;;;;;;;;;;5073582;28;20020;-77
2022/10/06 13:58:00;;;;;;;9.70;4.97;;;;;;;;;;5089366;28;20020;-76
2022/10/06 14:00:30;;;;;;;8.75;5.60;;;;;;;;;;5089465;28;20031;-76